| time (UTC) | temp F | wind direction | speed MPH | gust MPH | rain 1hr in | rain 24hr in | rain mn in | humidity % | barometer mb |
| 20260507204513 | 63 | 294 | 0.0 | 5.0 | 0.00 | 0.11 | 0.00 | 34 | 1004.6 |
| 20260507203016 | 63 | 121 | 0.0 | 3.0 | 0.00 | 0.15 | 0.00 | 33 | 1004.5 |
| 20260507201535 | 63 | 260 | 0.0 | 6.0 | 0.00 | 0.15 | 0.00 | 33 | 1004.6 |
| 20260507200019 | 62 | 300 | 1.0 | 6.0 | 0.00 | 0.15 | 0.00 | 34 | 1004.7 |
| 20260507194531 | 62 | 294 | 0.0 | 7.0 | 0.00 | 0.15 | 0.00 | 35 | 1004.8 |
| 20260507193023 | 61 | 252 | 0.0 | 6.0 | 0.00 | 0.21 | 0.00 | 39 | 1004.9 |
| 20260507191520 | 61 | 284 | 2.0 | 8.0 | 0.00 | 0.21 | 0.00 | 34 | 1005.0 |
| 20260507190005 | 62 | 278 | 3.0 | 9.0 | 0.00 | 0.21 | 0.00 | 34 | 1005.1 |
| 20260507184541 | 61 | 252 | 2.0 | 8.0 | 0.00 | 0.21 | 0.00 | 36 | 1005.2 |
| 20260507183004 | 62 | 314 | 1.0 | 6.0 | 0.00 | 0.23 | 0.00 | 34 | 1005.3 |
| 20260507181539 | 63 | 288 | 1.0 | 6.0 | 0.00 | 0.23 | 0.00 | 37 | 1005.2 |
| 20260507180002 | 63 | 296 | 2.0 | 7.0 | 0.00 | 0.23 | 0.00 | 34 | 1005.2 |
| 20260507174544 | 63 | 280 | 1.0 | 7.0 | 0.00 | 0.23 | 0.00 | 40 | 1005.1 |
| 20260507173041 | 61 | 262 | 1.0 | 7.0 | 0.00 | 0.23 | 0.00 | 42 | 1005.2 |
| 20260507171533 | 62 | 297 | 2.0 | 7.0 | 0.00 | 0.23 | 0.00 | 42 | 1005.5 |
| 20260507170113 | 61 | 283 | 1.0 | 6.0 | 0.00 | 0.23 | 0.00 | 46 | 1005.6 |
| 20260507164534 | 59 | 266 | 4.0 | 8.0 | 0.00 | 0.23 | 0.00 | 48 | 1005.8 |
| 20260507163015 | 59 | 291 | 2.0 | 5.0 | 0.00 | 0.23 | 0.00 | 54 | 1005.8 |
| 20260507161532 | 59 | 107 | 0.0 | 7.0 | 0.00 | 0.23 | 0.00 | 56 | 1006.0 |
| 20260507160021 | 58 | 276 | 0.0 | 4.0 | 0.00 | 0.23 | 0.00 | 58 | 1006.2 |
| 20260507154535 | 58 | 245 | 2.0 | 7.0 | 0.00 | 0.23 | 0.00 | 54 | 1006.3 |
| 20260507153018 | 59 | 291 | 3.0 | 8.0 | 0.00 | 0.23 | 0.00 | 55 | 1006.6 |
| 20260507151532 | 59 | 280 | 0.0 | 3.0 | 0.00 | 0.23 | 0.00 | 55 | 1006.7 |
| 20260507150010 | 58 | 296 | 3.0 | 5.0 | 0.00 | 0.23 | 0.00 | 54 | 1006.8 |
| 20260507144543 | 58 | 303 | 0.0 | 2.0 | 0.00 | 0.23 | 0.00 | 57 | 1006.9 |
| 20260507143008 | 58 | 284 | 1.0 | 7.0 | 0.00 | 0.23 | 0.00 | 55 | 1006.7 |
| 20260507141557 | 58 | 274 | 3.0 | 5.0 | 0.00 | 0.23 | 0.00 | 57 | 1006.7 |
| 20260507140009 | 58 | 255 | 2.0 | 5.0 | 0.00 | 0.23 | 0.00 | 58 | 1006.6 |
| 20260507134550 | 58 | 278 | 0.0 | 2.0 | 0.00 | 0.23 | 0.00 | 57 | 1006.8 |
| 20260507133011 | 57 | 297 | 0.0 | 3.0 | 0.00 | 0.23 | 0.00 | 59 | 1007.0 |
| 20260507131546 | 56 | 305 | 0.0 | 3.0 | 0.00 | 0.23 | 0.00 | 62 | 1007.1 |
| 20260507130025 | 55 | 195 | 0.0 | 4.0 | 0.00 | 0.23 | 0.00 | 62 | 1007.0 |
| 20260507124512 | 54 | 259 | 1.0 | 7.0 | 0.00 | 0.23 | 0.00 | 62 | 1007.1 |
| 20260507123004 | 52 | 295 | 0.0 | 2.0 | 0.00 | 0.23 | 0.00 | 57 | 1007.3 |
| 20260507121544 | 51 | 290 | 0.0 | 2.0 | 0.00 | 0.23 | 0.00 | 51 | 1007.3 |
| 20260507120006 | 50 | 289 | 1.0 | 3.0 | 0.00 | 0.23 | 0.00 | 48 | 1007.5 |
| 20260507114545 | 49 | 86 | 0.0 | 1.0 | 0.00 | 0.23 | 0.00 | 32 | 1007.2 |
| 20260507113026 | 48 | 38 | 0.0 | 1.0 | 0.00 | 0.23 | 0.00 | 23 | 1007.3 |
| 20260507111551 | 47 | 72 | 0.0 | 0.0 | 0.00 | 0.23 | 0.00 | 18 | 1007.2 |
| 20260507110018 | 47 | 62 | 0.0 | 0.0 | 0.00 | 0.23 | 0.00 | 11 | 1007.0 |
| 20260507104539 | 47 | 62 | 0.0 | 0.0 | 0.00 | 0.23 | 0.00 | 14 | 1007.0 |
| 20260507103017 | 47 | 350 | 0.0 | 1.0 | 0.00 | 0.23 | 0.00 | 12 | 1007.0 |
| 20260507101556 | 47 | 101 | 0.0 | 1.0 | 0.00 | 0.23 | 0.00 | 10 | 1006.8 |
| 20260507100040 | 47 | 282 | 0.0 | 1.0 | 0.00 | 0.23 | 0.00 | 12 | 1007.1 |
| 20260507094539 | 47 | 292 | 0.0 | 2.0 | 0.00 | 0.23 | 0.00 | 11 | 1006.8 |
| 20260507093012 | 47 | 307 | 0.0 | 1.0 | 0.00 | 0.23 | 0.00 | 11 | 1006.9 |
| 20260507091550 | 47 | 82 | 0.0 | 1.0 | 0.00 | 0.23 | 0.00 | 9 | 1006.5 |
| 20260507090012 | 47 | 329 | 0.0 | 0.0 | 0.00 | 0.23 | 0.00 | 8 | 1006.8 |
| 20260507084550 | 48 | 331 | 0.0 | 2.0 | 0.00 | 0.23 | 0.00 | 10 | 1006.3 |
| 20260507083011 | 48 | 23 | 0.0 | 1.0 | 0.00 | 0.23 | 0.00 | 9 | 1006.3 |
| 20260507081549 | 48 | 66 | 0.0 | 1.0 | 0.00 | 0.23 | 0.00 | 14 | 1006.0 |
| 20260507080035 | 49 | 291 | 0.0 | 2.0 | 0.00 | 0.23 | 0.00 | 16 | 1006.6 |
| 20260507074527 | 49 | 303 | 0.0 | 2.0 | 0.00 | 0.23 | 0.00 | 15 | 1006.3 |
| 20260507073004 | 49 | 4 | 0.0 | 4.0 | 0.00 | 0.23 | 0.00 | 11 | 1006.0 |
| 20260507071543 | 49 | 299 | 0.0 | 3.0 | 0.00 | 0.23 | 0.00 | 7 | 1006.2 |
| 20260507070009 | 49 | 306 | 0.0 | 3.0 | 0.00 | 0.23 | 0.00 | 7 | 1005.6 |
| 20260507064605 | 49 | 280 | 0.0 | 6.0 | 0.00 | 0.23 | 0.00 | 7 | 1005.8 |
| 20260507063047 | 49 | 284 | 0.0 | 2.0 | 0.00 | 0.23 | 0.23 | 6 | 1005.5 |
| 20260507061538 | 50 | 290 | 0.0 | 1.0 | 0.00 | 0.23 | 0.23 | 3 | 1005.7 |
| 20260507060017 | 50 | 284 | 1.0 | 4.0 | 0.00 | 0.23 | 0.23 | 3 | 1005.8 |
| 20260507054545 | 50 | 271 | 0.0 | 3.0 | 0.00 | 0.23 | 0.23 | 100 | 1005.8 |
| 20260507053040 | 51 | 290 | 1.0 | 3.0 | 0.00 | 0.23 | 0.23 | 100 | 1005.9 |
| 20260507051535 | 51 | 276 | 0.0 | 2.0 | 0.00 | 0.23 | 0.23 | 100 | 1005.5 |
| 20260507050013 | 52 | 262 | 0.0 | 4.0 | 0.00 | 0.23 | 0.23 | 100 | 1005.3 |
| 20260507044540 | 52 | 288 | 0.0 | 4.0 | 0.00 | 0.23 | 0.23 | 100 | 1005.7 |
| 20260507043038 | 53 | 285 | 1.0 | 6.0 | 0.00 | 0.23 | 0.23 | 100 | 1005.6 |
| 20260507041546 | 53 | 279 | 0.0 | 2.0 | 0.00 | 0.23 | 0.23 | 100 | 1005.3 |
| 20260507040008 | 54 | 288 | 1.0 | 3.0 | 0.00 | 0.23 | 0.23 | 100 | 1005.2 |
| 20260507034549 | 55 | 262 | 0.0 | 6.0 | 0.00 | 0.23 | 0.23 | 2 | 1004.8 |
| 20260507033012 | 56 | 305 | 2.0 | 6.0 | 0.00 | 0.23 | 0.23 | 100 | 1005.0 |
| 20260507031546 | 57 | 300 | 0.0 | 5.0 | 0.00 | 0.23 | 0.23 | 100 | 1004.9 |
| 20260507030005 | 59 | 277 | 1.0 | 4.0 | 0.00 | 0.23 | 0.23 | 100 | 1004.6 |
| 20260507024544 | 59 | 288 | 0.0 | 4.0 | 0.00 | 0.23 | 0.23 | 100 | 1004.4 |
| 20260507023005 | 59 | 248 | 0.0 | 3.0 | 0.00 | 0.23 | 0.23 | 100 | 1004.2 |
| 20260507021552 | 59 | 250 | 0.0 | 2.0 | 0.00 | 0.23 | 0.23 | 100 | 1004.2 |
| 20260507020044 | 59 | 266 | 2.0 | 5.0 | 0.00 | 0.23 | 0.23 | 100 | 1004.4 |
| 20260507014553 | 59 | 284 | 1.0 | 4.0 | 0.00 | 0.23 | 0.23 | 100 | 1004.5 |
| 20260507013038 | 59 | 240 | 0.0 | 3.0 | 0.00 | 0.23 | 0.23 | 100 | 1004.6 |
| 20260507011531 | 59 | 101 | 2.0 | 4.0 | 0.00 | 0.23 | 0.23 | 100 | 1004.7 |
| 20260507010013 | 59 | 225 | 0.0 | 4.0 | 0.00 | 0.23 | 0.23 | 100 | 1004.6 |
| 20260507004549 | 59 | 233 | 1.0 | 6.0 | 0.00 | 0.23 | 0.23 | 100 | 1004.6 |
| 20260507003026 | 59 | 249 | 1.0 | 4.0 | 0.01 | 0.23 | 0.23 | 100 | 1004.6 |
| 20260507001607 | 59 | 210 | 0.0 | 5.0 | 0.01 | 0.23 | 0.23 | 100 | 1004.5 |
| 20260507000030 | 59 | 224 | 0.0 | 5.0 | 0.01 | 0.23 | 0.23 | 100 | 1004.4 |
| 20260506234547 | 59 | 233 | 1.0 | 5.0 | 0.01 | 0.23 | 0.23 | 100 | 1004.4 |
| 20260506233024 | 59 | 224 | 1.0 | 4.0 | 0.00 | 0.22 | 0.22 | 100 | 1004.3 |
| 20260506231602 | 59 | 152 | 1.0 | 5.0 | 0.00 | 0.22 | 0.22 | 100 | 1004.6 |
| 20260506230026 | 59 | 210 | 1.0 | 7.0 | 0.01 | 0.22 | 0.22 | 100 | 1004.6 |
| 20260506224504 | 60 | 268 | 1.0 | 8.0 | 0.03 | 0.22 | 0.22 | 100 | 1004.6 |
| 20260506223026 | 60 | 199 | 2.0 | 6.0 | 0.03 | 0.22 | 0.22 | 100 | 1004.6 |
| 20260506221510 | 60 | 105 | 2.0 | 5.0 | 0.05 | 0.22 | 0.22 | 100 | 1004.7 |
| 20260506220005 | 60 | 230 | 3.0 | 9.0 | 0.04 | 0.20 | 0.20 | 100 | 1005.0 |
| 20260506214610 | 60 | 160 | 1.0 | 5.0 | 0.05 | 0.19 | 0.19 | 100 | 1005.1 |
| 20260506213021 | 60 | 229 | 3.0 | 8.0 | 0.07 | 0.19 | 0.19 | 100 | 1005.1 |
| 20260506211558 | 60 | 118 | 2.0 | 11.0 | 0.07 | 0.17 | 0.17 | 100 | 1005.5 |
| 20260506210018 | 61 | 118 | 1.0 | 7.0 | 0.08 | 0.16 | 0.16 | 100 | 1005.2 |